sensor_id;sensor_type;location;lat;lon;timestamp;P1;durP1;ratioP1;P2;durP2;ratioP2
62149;SDS011;48134;53.586;10.610;2023-09-30T00:01:58;15.20;;;3.55;;
62149;SDS011;48134;53.586;10.610;2023-09-30T00:04:33;19.45;;;4.47;;
62149;SDS011;48134;53.586;10.610;2023-09-30T00:07:01;16.83;;;3.88;;
62149;SDS011;48134;53.586;10.610;2023-09-30T00:09:34;17.70;;;3.90;;
62149;SDS011;48134;53.586;10.610;2023-09-30T00:12:03;16.90;;;3.87;;
62149;SDS011;48134;53.586;10.610;2023-09-30T00:14:36;20.95;;;3.72;;
62149;SDS011;48134;53.586;10.610;2023-09-30T00:17:05;14.93;;;3.80;;
62149;SDS011;48134;53.586;10.610;2023-09-30T00:19:39;15.40;;;3.38;;
62149;SDS011;48134;53.586;10.610;2023-09-30T00:22:12;16.45;;;3.72;;
62149;SDS011;48134;53.586;10.610;2023-09-30T00:24:40;16.80;;;3.50;;
62149;SDS011;48134;53.586;10.610;2023-09-30T00:27:09;18.98;;;4.38;;
62149;SDS011;48134;53.586;10.610;2023-09-30T00:29:42;18.87;;;3.87;;
62149;SDS011;48134;53.586;10.610;2023-09-30T00:32:15;21.60;;;3.80;;
62149;SDS011;48134;53.586;10.610;2023-09-30T00:34:49;16.10;;;3.63;;
62149;SDS011;48134;53.586;10.610;2023-09-30T00:37:20;19.27;;;3.75;;
62149;SDS011;48134;53.586;10.610;2023-09-30T00:39:53;17.27;;;3.73;;
62149;SDS011;48134;53.586;10.610;2023-09-30T00:42:22;21.35;;;4.25;;
62149;SDS011;48134;53.586;10.610;2023-09-30T00:44:56;17.52;;;3.38;;
62149;SDS011;48134;53.586;10.610;2023-09-30T00:47:29;18.05;;;3.63;;
62149;SDS011;48134;53.586;10.610;2023-09-30T00:50:04;19.13;;;3.42;;
62149;SDS011;48134;53.586;10.610;2023-09-30T00:52:35;23.02;;;4.20;;
62149;SDS011;48134;53.586;10.610;2023-09-30T00:55:05;18.45;;;3.60;;
62149;SDS011;48134;53.586;10.610;2023-09-30T00:57:40;19.63;;;3.60;;
62149;SDS011;48134;53.586;10.610;2023-09-30T01:00:14;19.92;;;3.80;;
62149;SDS011;48134;53.586;10.610;2023-09-30T01:02:43;20.10;;;4.60;;
62149;SDS011;48134;53.586;10.610;2023-09-30T01:05:18;16.00;;;3.38;;
62149;SDS011;48134;53.586;10.610;2023-09-30T01:07:46;20.08;;;3.97;;
62149;SDS011;48134;53.586;10.610;2023-09-30T01:10:19;20.25;;;3.90;;
62149;SDS011;48134;53.586;10.610;2023-09-30T01:12:48;19.80;;;3.55;;
62149;SDS011;48134;53.586;10.610;2023-09-30T01:15:21;19.97;;;4.03;;
62149;SDS011;48134;53.586;10.610;2023-09-30T01:17:54;19.17;;;3.53;;
62149;SDS011;48134;53.586;10.610;2023-09-30T01:20:29;15.20;;;3.80;;
62149;SDS011;48134;53.586;10.610;2023-09-30T01:23:04;15.43;;;3.72;;
62149;SDS011;48134;53.586;10.610;2023-09-30T01:25:37;17.65;;;4.03;;
62149;SDS011;48134;53.586;10.610;2023-09-30T01:28:07;15.88;;;3.45;;
62149;SDS011;48134;53.586;10.610;2023-09-30T01:30:37;18.95;;;3.95;;
62149;SDS011;48134;53.586;10.610;2023-09-30T01:33:10;19.67;;;3.83;;
62149;SDS011;48134;53.586;10.610;2023-09-30T01:35:43;15.32;;;3.88;;
62149;SDS011;48134;53.586;10.610;2023-09-30T01:38:13;17.98;;;3.67;;
62149;SDS011;48134;53.586;10.610;2023-09-30T01:40:46;17.52;;;3.97;;
62149;SDS011;48134;53.586;10.610;2023-09-30T01:43:19;20.42;;;3.90;;
62149;SDS011;48134;53.586;10.610;2023-09-30T01:45:52;20.80;;;3.90;;
62149;SDS011;48134;53.586;10.610;2023-09-30T01:48:20;15.80;;;3.67;;
62149;SDS011;48134;53.586;10.610;2023-09-30T01:50:54;16.88;;;4.30;;
62149;SDS011;48134;53.586;10.610;2023-09-30T01:53:28;19.80;;;3.77;;
62149;SDS011;48134;53.586;10.610;2023-09-30T01:56:01;22.88;;;3.80;;
62149;SDS011;48134;53.586;10.610;2023-09-30T01:58:35;16.75;;;3.40;;
62149;SDS011;48134;53.586;10.610;2023-09-30T02:01:08;22.08;;;3.90;;
62149;SDS011;48134;53.586;10.610;2023-09-30T02:03:36;19.02;;;3.40;;
62149;SDS011;48134;53.586;10.610;2023-09-30T02:06:05;14.45;;;3.33;;
62149;SDS011;48134;53.586;10.610;2023-09-30T02:08:34;16.67;;;3.70;;
62149;SDS011;48134;53.586;10.610;2023-09-30T02:11:03;17.40;;;3.97;;
62149;SDS011;48134;53.586;10.610;2023-09-30T02:13:32;17.65;;;3.72;;
62149;SDS011;48134;53.586;10.610;2023-09-30T02:16:10;19.52;;;3.80;;
62149;SDS011;48134;53.586;10.610;2023-09-30T02:18:39;16.63;;;3.60;;
62149;SDS011;48134;53.586;10.610;2023-09-30T02:21:13;17.00;;;3.53;;
62149;SDS011;48134;53.586;10.610;2023-09-30T02:23:43;18.00;;;3.67;;
62149;SDS011;48134;53.586;10.610;2023-09-30T02:26:19;15.20;;;3.50;;
62149;SDS011;48134;53.586;10.610;2023-09-30T02:28:54;16.92;;;3.38;;
62149;SDS011;48134;53.586;10.610;2023-09-30T02:31:28;20.27;;;3.60;;
62149;SDS011;48134;53.586;10.610;2023-09-30T02:34:01;23.13;;;3.70;;
62149;SDS011;48134;53.586;10.610;2023-09-30T02:36:35;18.70;;;3.47;;
62149;SDS011;48134;53.586;10.610;2023-09-30T02:39:06;16.38;;;3.65;;
62149;SDS011;48134;53.586;10.610;2023-09-30T02:41:35;16.33;;;3.72;;
62149;SDS011;48134;53.586;10.610;2023-09-30T02:44:04;17.42;;;3.78;;
62149;SDS011;48134;53.586;10.610;2023-09-30T02:46:38;15.87;;;3.50;;
62149;SDS011;48134;53.586;10.610;2023-09-30T02:49:06;21.80;;;3.92;;
62149;SDS011;48134;53.586;10.610;2023-09-30T02:51:40;21.60;;;3.67;;
62149;SDS011;48134;53.586;10.610;2023-09-30T02:54:09;21.52;;;3.90;;
62149;SDS011;48134;53.586;10.610;2023-09-30T02:56:47;17.55;;;3.42;;
62149;SDS011;48134;53.586;10.610;2023-09-30T02:59:15;16.92;;;3.42;;
62149;SDS011;48134;53.586;10.610;2023-09-30T03:01:50;20.35;;;3.25;;
62149;SDS011;48134;53.586;10.610;2023-09-30T03:04:23;16.77;;;3.83;;
62149;SDS011;48134;53.586;10.610;2023-09-30T03:06:53;18.30;;;3.30;;
62149;SDS011;48134;53.586;10.610;2023-09-30T03:09:29;17.75;;;3.88;;
62149;SDS011;48134;53.586;10.610;2023-09-30T03:12:03;17.77;;;3.97;;
62149;SDS011;48134;53.586;10.610;2023-09-30T03:14:32;19.47;;;3.60;;
62149;SDS011;48134;53.586;10.610;2023-09-30T03:17:06;16.52;;;3.65;;
62149;SDS011;48134;53.586;10.610;2023-09-30T03:19:43;19.52;;;3.78;;
62149;SDS011;48134;53.586;10.610;2023-09-30T03:22:16;20.67;;;4.27;;
62149;SDS011;48134;53.586;10.610;2023-09-30T03:24:51;23.63;;;3.83;;
62149;SDS011;48134;53.586;10.610;2023-09-30T03:27:25;19.98;;;4.30;;
62149;SDS011;48134;53.586;10.610;2023-09-30T03:29:54;25.13;;;4.10;;
62149;SDS011;48134;53.586;10.610;2023-09-30T03:32:22;20.97;;;4.00;;
62149;SDS011;48134;53.586;10.610;2023-09-30T03:34:56;19.17;;;4.30;;
62149;SDS011;48134;53.586;10.610;2023-09-30T03:37:31;18.80;;;3.95;;
62149;SDS011;48134;53.586;10.610;2023-09-30T03:40:01;16.70;;;3.87;;
62149;SDS011;48134;53.586;10.610;2023-09-30T03:42:40;19.73;;;3.70;;
62149;SDS011;48134;53.586;10.610;2023-09-30T03:45:15;15.32;;;3.60;;
62149;SDS011;48134;53.586;10.610;2023-09-30T03:47:44;18.90;;;3.90;;
62149;SDS011;48134;53.586;10.610;2023-09-30T03:50:17;15.15;;;4.28;;
62149;SDS011;48134;53.586;10.610;2023-09-30T03:52:45;19.75;;;3.88;;
62149;SDS011;48134;53.586;10.610;2023-09-30T03:55:16;19.13;;;4.03;;
62149;SDS011;48134;53.586;10.610;2023-09-30T03:57:52;23.33;;;4.85;;
62149;SDS011;48134;53.586;10.610;2023-09-30T04:00:20;17.85;;;4.32;;
62149;SDS011;48134;53.586;10.610;2023-09-30T04:02:49;21.95;;;4.35;;
62149;SDS011;48134;53.586;10.610;2023-09-30T04:05:20;19.27;;;4.73;;
62149;SDS011;48134;53.586;10.610;2023-09-30T04:07:57;18.73;;;4.22;;
62149;SDS011;48134;53.586;10.610;2023-09-30T04:10:27;20.52;;;4.88;;
62149;SDS011;48134;53.586;10.610;2023-09-30T04:13:01;23.48;;;4.78;;
62149;SDS011;48134;53.586;10.610;2023-09-30T04:15:35;18.70;;;4.63;;
62149;SDS011;48134;53.586;10.610;2023-09-30T04:18:08;21.87;;;4.77;;
62149;SDS011;48134;53.586;10.610;2023-09-30T04:20:38;20.65;;;4.80;;
62149;SDS011;48134;53.586;10.610;2023-09-30T04:23:12;19.73;;;4.50;;
62149;SDS011;48134;53.586;10.610;2023-09-30T04:25:47;18.65;;;4.32;;
62149;SDS011;48134;53.586;10.610;2023-09-30T04:28:21;18.97;;;4.73;;
62149;SDS011;48134;53.586;10.610;2023-09-30T04:30:51;17.73;;;4.95;;
62149;SDS011;48134;53.586;10.610;2023-09-30T04:33:25;21.67;;;4.53;;
62149;SDS011;48134;53.586;10.610;2023-09-30T04:35:53;18.40;;;5.00;;
62149;SDS011;48134;53.586;10.610;2023-09-30T04:38:21;21.77;;;5.20;;
62149;SDS011;48134;53.586;10.610;2023-09-30T04:40:56;20.67;;;5.00;;
62149;SDS011;48134;53.586;10.610;2023-09-30T04:43:24;20.30;;;5.03;;
62149;SDS011;48134;53.586;10.610;2023-09-30T04:45:56;16.50;;;4.88;;
62149;SDS011;48134;53.586;10.610;2023-09-30T04:48:24;18.75;;;5.20;;
62149;SDS011;48134;53.586;10.610;2023-09-30T04:50:53;20.10;;;4.80;;
62149;SDS011;48134;53.586;10.610;2023-09-30T04:53:26;26.20;;;5.43;;
62149;SDS011;48134;53.586;10.610;2023-09-30T04:55:57;18.08;;;5.05;;
62149;SDS011;48134;53.586;10.610;2023-09-30T04:58:26;22.13;;;5.43;;
62149;SDS011;48134;53.586;10.610;2023-09-30T05:01:01;22.00;;;5.68;;
62149;SDS011;48134;53.586;10.610;2023-09-30T05:03:29;21.80;;;5.53;;
62149;SDS011;48134;53.586;10.610;2023-09-30T05:05:57;23.42;;;6.55;;
62149;SDS011;48134;53.586;10.610;2023-09-30T05:08:26;21.65;;;6.07;;
62149;SDS011;48134;53.586;10.610;2023-09-30T05:10:55;21.48;;;5.72;;
62149;SDS011;48134;53.586;10.610;2023-09-30T05:13:30;25.37;;;5.57;;
62149;SDS011;48134;53.586;10.610;2023-09-30T05:16:00;20.85;;;5.88;;
62149;SDS011;48134;53.586;10.610;2023-09-30T05:18:29;20.27;;;5.63;;
62149;SDS011;48134;53.586;10.610;2023-09-30T05:20:58;19.48;;;5.05;;
62149;SDS011;48134;53.586;10.610;2023-09-30T05:23:31;24.83;;;5.85;;
62149;SDS011;48134;53.586;10.610;2023-09-30T05:26:01;23.25;;;5.85;;
62149;SDS011;48134;53.586;10.610;2023-09-30T05:28:35;24.37;;;5.83;;
62149;SDS011;48134;53.586;10.610;2023-09-30T05:31:09;23.83;;;5.50;;
62149;SDS011;48134;53.586;10.610;2023-09-30T05:33:42;23.67;;;5.32;;
62149;SDS011;48134;53.586;10.610;2023-09-30T05:36:15;22.95;;;5.55;;
62149;SDS011;48134;53.586;10.610;2023-09-30T05:38:48;19.05;;;5.00;;
62149;SDS011;48134;53.586;10.610;2023-09-30T05:41:22;20.27;;;4.93;;
62149;SDS011;48134;53.586;10.610;2023-09-30T05:43:52;24.08;;;5.75;;
62149;SDS011;48134;53.586;10.610;2023-09-30T05:46:26;25.88;;;5.55;;
62149;SDS011;48134;53.586;10.610;2023-09-30T05:48:54;22.83;;;5.15;;
62149;SDS011;48134;53.586;10.610;2023-09-30T05:51:23;19.02;;;5.30;;
62149;SDS011;48134;53.586;10.610;2023-09-30T05:53:56;22.42;;;5.50;;
62149;SDS011;48134;53.586;10.610;2023-09-30T05:56:24;21.00;;;5.43;;
62149;SDS011;48134;53.586;10.610;2023-09-30T05:58:55;17.40;;;4.73;;
62149;SDS011;48134;53.586;10.610;2023-09-30T06:01:23;20.35;;;5.03;;
62149;SDS011;48134;53.586;10.610;2023-09-30T06:03:56;19.60;;;5.70;;
62149;SDS011;48134;53.586;10.610;2023-09-30T06:06:30;21.75;;;5.50;;
62149;SDS011;48134;53.586;10.610;2023-09-30T06:08:58;19.40;;;5.05;;
62149;SDS011;48134;53.586;10.610;2023-09-30T06:11:26;23.07;;;5.53;;
62149;SDS011;48134;53.586;10.610;2023-09-30T06:14:01;21.10;;;4.90;;
62149;SDS011;48134;53.586;10.610;2023-09-30T06:16:33;22.25;;;4.97;;
62149;SDS011;48134;53.586;10.610;2023-09-30T06:19:06;21.08;;;5.20;;
62149;SDS011;48134;53.586;10.610;2023-09-30T06:21:41;17.80;;;4.97;;
62149;SDS011;48134;53.586;10.610;2023-09-30T06:24:09;19.73;;;5.43;;
62149;SDS011;48134;53.586;10.610;2023-09-30T06:26:37;16.23;;;4.97;;
62149;SDS011;48134;53.586;10.610;2023-09-30T06:29:07;21.80;;;4.88;;
62149;SDS011;48134;53.586;10.610;2023-09-30T06:31:40;24.15;;;4.65;;
62149;SDS011;48134;53.586;10.610;2023-09-30T06:34:13;21.25;;;5.13;;
62149;SDS011;48134;53.586;10.610;2023-09-30T06:36:42;17.63;;;4.95;;
62149;SDS011;48134;53.586;10.610;2023-09-30T06:39:15;17.80;;;4.80;;
62149;SDS011;48134;53.586;10.610;2023-09-30T06:41:48;21.27;;;4.70;;
62149;SDS011;48134;53.586;10.610;2023-09-30T06:44:19;20.80;;;5.20;;
62149;SDS011;48134;53.586;10.610;2023-09-30T06:46:47;17.20;;;4.70;;
62149;SDS011;48134;53.586;10.610;2023-09-30T06:49:17;16.25;;;4.97;;
62149;SDS011;48134;53.586;10.610;2023-09-30T06:51:50;23.43;;;4.97;;
62149;SDS011;48134;53.586;10.610;2023-09-30T06:54:18;20.10;;;4.90;;
62149;SDS011;48134;53.586;10.610;2023-09-30T06:56:51;18.42;;;4.78;;
62149;SDS011;48134;53.586;10.610;2023-09-30T06:59:26;18.60;;;4.68;;
62149;SDS011;48134;53.586;10.610;2023-09-30T07:01:55;22.70;;;4.82;;
62149;SDS011;48134;53.586;10.610;2023-09-30T07:04:23;21.42;;;4.53;;
62149;SDS011;48134;53.586;10.610;2023-09-30T07:06:53;19.52;;;4.80;;
62149;SDS011;48134;53.586;10.610;2023-09-30T07:09:26;20.08;;;4.70;;
62149;SDS011;48134;53.586;10.610;2023-09-30T07:11:59;18.33;;;5.10;;
62149;SDS011;48134;53.586;10.610;2023-09-30T07:14:29;23.27;;;4.90;;
62149;SDS011;48134;53.586;10.610;2023-09-30T07:17:02;21.80;;;4.97;;
62149;SDS011;48134;53.586;10.610;2023-09-30T07:19:36;21.63;;;4.93;;
62149;SDS011;48134;53.586;10.610;2023-09-30T07:22:09;18.00;;;4.80;;
62149;SDS011;48134;53.586;10.610;2023-09-30T07:24:38;16.73;;;5.32;;
62149;SDS011;48134;53.586;10.610;2023-09-30T07:27:11;24.10;;;5.00;;
62149;SDS011;48134;53.586;10.610;2023-09-30T07:29:46;18.20;;;4.88;;
62149;SDS011;48134;53.586;10.610;2023-09-30T07:32:15;18.30;;;4.82;;
62149;SDS011;48134;53.586;10.610;2023-09-30T07:34:44;18.75;;;4.55;;
62149;SDS011;48134;53.586;10.610;2023-09-30T07:37:12;19.42;;;4.55;;
62149;SDS011;48134;53.586;10.610;2023-09-30T07:39:41;19.77;;;4.78;;
62149;SDS011;48134;53.586;10.610;2023-09-30T07:42:09;17.08;;;4.40;;
62149;SDS011;48134;53.586;10.610;2023-09-30T07:44:38;19.93;;;4.90;;
62149;SDS011;48134;53.586;10.610;2023-09-30T07:47:12;18.88;;;4.63;;
62149;SDS011;48134;53.586;10.610;2023-09-30T07:49:46;20.00;;;4.80;;
62149;SDS011;48134;53.586;10.610;2023-09-30T07:52:20;19.02;;;4.65;;
62149;SDS011;48134;53.586;10.610;2023-09-30T07:54:53;20.10;;;4.80;;
62149;SDS011;48134;53.586;10.610;2023-09-30T07:57:26;18.45;;;4.53;;
62149;SDS011;48134;53.586;10.610;2023-09-30T07:59:55;20.77;;;4.47;;
62149;SDS011;48134;53.586;10.610;2023-09-30T08:02:24;17.83;;;4.47;;
62149;SDS011;48134;53.586;10.610;2023-09-30T08:04:59;13.32;;;4.18;;
62149;SDS011;48134;53.586;10.610;2023-09-30T08:07:27;18.40;;;4.32;;
62149;SDS011;48134;53.586;10.610;2023-09-30T08:10:01;18.40;;;4.22;;
62149;SDS011;48134;53.586;10.610;2023-09-30T08:12:31;16.25;;;3.92;;
62149;SDS011;48134;53.586;10.610;2023-09-30T08:15:05;16.52;;;3.97;;
62149;SDS011;48134;53.586;10.610;2023-09-30T08:17:40;24.88;;;8.75;;
62149;SDS011;48134;53.586;10.610;2023-09-30T08:20:09;20.33;;;4.43;;
62149;SDS011;48134;53.586;10.610;2023-09-30T08:22:43;13.07;;;3.58;;
62149;SDS011;48134;53.586;10.610;2023-09-30T08:25:11;16.17;;;3.97;;
62149;SDS011;48134;53.586;10.610;2023-09-30T08:27:39;15.27;;;4.13;;
62149;SDS011;48134;53.586;10.610;2023-09-30T08:30:13;17.23;;;4.10;;
62149;SDS011;48134;53.586;10.610;2023-09-30T08:32:47;16.85;;;3.97;;
62149;SDS011;48134;53.586;10.610;2023-09-30T08:35:21;15.98;;;4.03;;
62149;SDS011;48134;53.586;10.610;2023-09-30T08:37:49;16.75;;;5.22;;
62149;SDS011;48134;53.586;10.610;2023-09-30T08:40:22;16.92;;;3.88;;
62149;SDS011;48134;53.586;10.610;2023-09-30T08:42:51;16.73;;;3.85;;
62149;SDS011;48134;53.586;10.610;2023-09-30T08:45:25;16.63;;;3.63;;
62149;SDS011;48134;53.586;10.610;2023-09-30T08:48:02;18.05;;;3.83;;
62149;SDS011;48134;53.586;10.610;2023-09-30T08:50:37;18.10;;;3.42;;
62149;SDS011;48134;53.586;10.610;2023-09-30T08:53:09;15.55;;;3.72;;
62149;SDS011;48134;53.586;10.610;2023-09-30T08:55:43;19.00;;;4.15;;
62149;SDS011;48134;53.586;10.610;2023-09-30T08:58:14;16.70;;;3.42;;
62149;SDS011;48134;53.586;10.610;2023-09-30T09:00:48;16.85;;;3.40;;
62149;SDS011;48134;53.586;10.610;2023-09-30T09:03:24;18.17;;;3.50;;
62149;SDS011;48134;53.586;10.610;2023-09-30T09:06:01;17.70;;;3.53;;
62149;SDS011;48134;53.586;10.610;2023-09-30T09:08:29;17.20;;;4.07;;
62149;SDS011;48134;53.586;10.610;2023-09-30T09:11:03;15.00;;;3.20;;
62149;SDS011;48134;53.586;10.610;2023-09-30T09:13:44;13.65;;;2.95;;
62149;SDS011;48134;53.586;10.610;2023-09-30T09:16:16;15.80;;;3.47;;
62149;SDS011;48134;53.586;10.610;2023-09-30T09:18:47;15.80;;;3.10;;
62149;SDS011;48134;53.586;10.610;2023-09-30T09:21:16;15.07;;;3.40;;
62149;SDS011;48134;53.586;10.610;2023-09-30T09:23:47;13.15;;;2.90;;
62149;SDS011;48134;53.586;10.610;2023-09-30T09:26:23;17.25;;;3.20;;
62149;SDS011;48134;53.586;10.610;2023-09-30T09:28:55;14.15;;;2.92;;
62149;SDS011;48134;53.586;10.610;2023-09-30T09:31:25;13.25;;;2.92;;
62149;SDS011;48134;53.586;10.610;2023-09-30T09:34:01;17.43;;;3.30;;
62149;SDS011;48134;53.586;10.610;2023-09-30T09:36:38;15.85;;;3.10;;
62149;SDS011;48134;53.586;10.610;2023-09-30T09:39:07;13.30;;;2.78;;
62149;SDS011;48134;53.586;10.610;2023-09-30T09:41:38;14.02;;;2.78;;
62149;SDS011;48134;53.586;10.610;2023-09-30T09:44:17;16.70;;;3.08;;
62149;SDS011;48134;53.586;10.610;2023-09-30T09:46:53;13.40;;;2.83;;
62149;SDS011;48134;53.586;10.610;2023-09-30T09:49:22;15.02;;;2.95;;
62149;SDS011;48134;53.586;10.610;2023-09-30T09:51:52;13.00;;;2.90;;
62149;SDS011;48134;53.586;10.610;2023-09-30T09:54:21;16.50;;;3.00;;
62149;SDS011;48134;53.586;10.610;2023-09-30T09:56:55;16.15;;;2.40;;
62149;SDS011;48134;53.586;10.610;2023-09-30T09:59:26;14.85;;;2.65;;
62149;SDS011;48134;53.586;10.610;2023-09-30T10:02:01;15.52;;;2.55;;
62149;SDS011;48134;53.586;10.610;2023-09-30T10:04:40;14.67;;;2.73;;
62149;SDS011;48134;53.586;10.610;2023-09-30T10:07:09;12.07;;;2.53;;
62149;SDS011;48134;53.586;10.610;2023-09-30T10:09:41;13.40;;;2.60;;
62149;SDS011;48134;53.586;10.610;2023-09-30T10:12:19;13.23;;;2.67;;
62149;SDS011;48134;53.586;10.610;2023-09-30T10:14:48;16.58;;;2.67;;
62149;SDS011;48134;53.586;10.610;2023-09-30T10:17:24;16.40;;;2.80;;
62149;SDS011;48134;53.586;10.610;2023-09-30T10:20:28;10.70;;;2.38;;
62149;SDS011;48134;53.586;10.610;2023-09-30T10:25:49;13.73;;;2.55;;
62149;SDS011;48134;53.586;10.610;2023-09-30T10:28:33;16.20;;;2.50;;
62149;SDS011;48134;53.586;10.610;2023-09-30T10:31:07;12.70;;;2.30;;
62149;SDS011;48134;53.586;10.610;2023-09-30T10:36:54;14.53;;;2.57;;
62149;SDS011;48134;53.586;10.610;2023-09-30T10:42:46;14.30;;;2.40;;
62149;SDS011;48134;53.586;10.610;2023-09-30T10:48:34;11.75;;;2.60;;
62149;SDS011;48134;53.586;10.610;2023-09-30T10:51:17;13.98;;;2.35;;
62149;SDS011;48134;53.586;10.610;2023-09-30T10:53:54;9.80;;;1.97;;
62149;SDS011;48134;53.586;10.610;2023-09-30T10:56:32;9.00;;;2.13;;
62149;SDS011;48134;53.586;10.610;2023-09-30T10:59:01;11.25;;;2.28;;
62149;SDS011;48134;53.586;10.610;2023-09-30T11:01:32;15.20;;;2.27;;
62149;SDS011;48134;53.586;10.610;2023-09-30T11:04:01;13.05;;;2.50;;
62149;SDS011;48134;53.586;10.610;2023-09-30T11:06:39;9.50;;;1.80;;
62149;SDS011;48134;53.586;10.610;2023-09-30T11:09:09;11.13;;;2.00;;
62149;SDS011;48134;53.586;10.610;2023-09-30T11:11:45;15.95;;;3.20;;
62149;SDS011;48134;53.586;10.610;2023-09-30T11:14:21;12.50;;;2.47;;
62149;SDS011;48134;53.586;10.610;2023-09-30T11:16:51;11.13;;;1.92;;
62149;SDS011;48134;53.586;10.610;2023-09-30T11:19:20;10.82;;;1.98;;
62149;SDS011;48134;53.586;10.610;2023-09-30T11:21:54;10.30;;;2.20;;
62149;SDS011;48134;53.586;10.610;2023-09-30T11:24:26;12.30;;;1.95;;
62149;SDS011;48134;53.586;10.610;2023-09-30T11:26:56;9.82;;;1.90;;
62149;SDS011;48134;53.586;10.610;2023-09-30T11:29:28;10.52;;;2.15;;
62149;SDS011;48134;53.586;10.610;2023-09-30T11:32:02;14.07;;;2.40;;
62149;SDS011;48134;53.586;10.610;2023-09-30T11:34:36;11.40;;;2.17;;
62149;SDS011;48134;53.586;10.610;2023-09-30T11:37:10;9.05;;;1.70;;
62149;SDS011;48134;53.586;10.610;2023-09-30T11:39:45;8.05;;;1.88;;
62149;SDS011;48134;53.586;10.610;2023-09-30T11:42:14;10.20;;;2.58;;
62149;SDS011;48134;53.586;10.610;2023-09-30T11:44:44;8.93;;;1.75;;
62149;SDS011;48134;53.586;10.610;2023-09-30T11:47:13;12.00;;;1.98;;
62149;SDS011;48134;53.586;10.610;2023-09-30T11:49:42;10.93;;;1.95;;
62149;SDS011;48134;53.586;10.610;2023-09-30T11:52:12;10.38;;;1.95;;
62149;SDS011;48134;53.586;10.610;2023-09-30T11:54:42;8.95;;;1.65;;
62149;SDS011;48134;53.586;10.610;2023-09-30T11:57:13;13.90;;;1.90;;
62149;SDS011;48134;53.586;10.610;2023-09-30T11:59:43;9.60;;;2.10;;
62149;SDS011;48134;53.586;10.610;2023-09-30T12:02:17;8.38;;;1.75;;
62149;SDS011;48134;53.586;10.610;2023-09-30T12:04:51;8.05;;;1.70;;
62149;SDS011;48134;53.586;10.610;2023-09-30T12:07:25;10.50;;;2.22;;
62149;SDS011;48134;53.586;10.610;2023-09-30T12:09:58;10.30;;;1.80;;
62149;SDS011;48134;53.586;10.610;2023-09-30T12:12:32;10.38;;;2.10;;
62149;SDS011;48134;53.586;10.610;2023-09-30T12:15:01;9.93;;;1.60;;
62149;SDS011;48134;53.586;10.610;2023-09-30T12:17:30;11.60;;;2.08;;
62149;SDS011;48134;53.586;10.610;2023-09-30T12:20:03;12.80;;;2.30;;
62149;SDS011;48134;53.586;10.610;2023-09-30T12:22:38;10.40;;;2.08;;
62149;SDS011;48134;53.586;10.610;2023-09-30T12:25:11;9.85;;;1.88;;
62149;SDS011;48134;53.586;10.610;2023-09-30T12:27:46;10.60;;;1.75;;
62149;SDS011;48134;53.586;10.610;2023-09-30T12:30:19;8.43;;;1.95;;
62149;SDS011;48134;53.586;10.610;2023-09-30T12:32:52;10.15;;;1.95;;
62149;SDS011;48134;53.586;10.610;2023-09-30T12:35:26;8.60;;;1.90;;
62149;SDS011;48134;53.586;10.610;2023-09-30T12:38:00;9.63;;;1.67;;
62149;SDS011;48134;53.586;10.610;2023-09-30T12:40:33;10.43;;;1.67;;
62149;SDS011;48134;53.586;10.610;2023-09-30T12:43:08;9.57;;;1.80;;
62149;SDS011;48134;53.586;10.610;2023-09-30T12:45:42;8.02;;;1.67;;
62149;SDS011;48134;53.586;10.610;2023-09-30T12:48:10;9.35;;;1.75;;
62149;SDS011;48134;53.586;10.610;2023-09-30T12:50:43;7.85;;;1.92;;
62149;SDS011;48134;53.586;10.610;2023-09-30T12:53:12;9.25;;;1.70;;
62149;SDS011;48134;53.586;10.610;2023-09-30T12:55:46;11.00;;;1.52;;
62149;SDS011;48134;53.586;10.610;2023-09-30T12:58:16;7.28;;;1.50;;
62149;SDS011;48134;53.586;10.610;2023-09-30T13:00:44;9.35;;;2.40;;
62149;SDS011;48134;53.586;10.610;2023-09-30T13:03:18;9.90;;;1.83;;
62149;SDS011;48134;53.586;10.610;2023-09-30T13:05:47;14.07;;;4.63;;
62149;SDS011;48134;53.586;10.610;2023-09-30T13:08:20;9.05;;;2.72;;
62149;SDS011;48134;53.586;10.610;2023-09-30T13:10:53;11.07;;;2.95;;
62149;SDS011;48134;53.586;10.610;2023-09-30T13:13:28;8.80;;;1.60;;
62149;SDS011;48134;53.586;10.610;2023-09-30T13:15:57;7.45;;;1.67;;
62149;SDS011;48134;53.586;10.610;2023-09-30T13:18:25;8.38;;;2.13;;
62149;SDS011;48134;53.586;10.610;2023-09-30T13:20:58;7.57;;;1.80;;
62149;SDS011;48134;53.586;10.610;2023-09-30T13:23:27;10.25;;;1.98;;
62149;SDS011;48134;53.586;10.610;2023-09-30T13:26:00;11.07;;;1.87;;
62149;SDS011;48134;53.586;10.610;2023-09-30T13:28:31;9.07;;;2.15;;
62149;SDS011;48134;53.586;10.610;2023-09-30T13:31:04;7.93;;;2.03;;
62149;SDS011;48134;53.586;10.610;2023-09-30T13:33:37;12.80;;;2.20;;
62149;SDS011;48134;53.586;10.610;2023-09-30T13:36:08;11.40;;;1.85;;
62149;SDS011;48134;53.586;10.610;2023-09-30T13:38:36;7.43;;;1.83;;
62149;SDS011;48134;53.586;10.610;2023-09-30T13:41:09;8.93;;;2.40;;
62149;SDS011;48134;53.586;10.610;2023-09-30T13:43:39;9.05;;;1.63;;
62149;SDS011;48134;53.586;10.610;2023-09-30T13:46:12;8.50;;;1.70;;
62149;SDS011;48134;53.586;10.610;2023-09-30T13:48:46;10.17;;;2.70;;
62149;SDS011;48134;53.586;10.610;2023-09-30T13:51:23;13.13;;;2.67;;
62149;SDS011;48134;53.586;10.610;2023-09-30T13:53:52;11.85;;;2.47;;
62149;SDS011;48134;53.586;10.610;2023-09-30T13:56:21;9.67;;;2.10;;
62149;SDS011;48134;53.586;10.610;2023-09-30T13:58:51;9.40;;;2.35;;
62149;SDS011;48134;53.586;10.610;2023-09-30T14:01:24;9.63;;;1.88;;
62149;SDS011;48134;53.586;10.610;2023-09-30T14:03:52;7.53;;;1.60;;
62149;SDS011;48134;53.586;10.610;2023-09-30T14:06:22;8.47;;;2.23;;
62149;SDS011;48134;53.586;10.610;2023-09-30T14:08:50;7.45;;;1.73;;
62149;SDS011;48134;53.586;10.610;2023-09-30T14:11:19;8.60;;;1.70;;
62149;SDS011;48134;53.586;10.610;2023-09-30T14:13:47;9.93;;;1.77;;
62149;SDS011;48134;53.586;10.610;2023-09-30T14:16:18;8.30;;;1.98;;
62149;SDS011;48134;53.586;10.610;2023-09-30T14:18:46;5.53;;;1.45;;
62149;SDS011;48134;53.586;10.610;2023-09-30T14:21:20;7.82;;;1.55;;
62149;SDS011;48134;53.586;10.610;2023-09-30T14:23:53;8.05;;;1.55;;
62149;SDS011;48134;53.586;10.610;2023-09-30T14:26:27;7.78;;;1.55;;
62149;SDS011;48134;53.586;10.610;2023-09-30T14:28:55;8.27;;;2.40;;
62149;SDS011;48134;53.586;10.610;2023-09-30T14:31:24;8.15;;;2.50;;
62149;SDS011;48134;53.586;10.610;2023-09-30T14:33:53;12.43;;;3.45;;
62149;SDS011;48134;53.586;10.610;2023-09-30T14:36:26;11.05;;;3.28;;
62149;SDS011;48134;53.586;10.610;2023-09-30T14:38:59;14.40;;;4.97;;
62149;SDS011;48134;53.586;10.610;2023-09-30T14:41:27;10.43;;;1.80;;
62149;SDS011;48134;53.586;10.610;2023-09-30T14:43:56;11.33;;;1.73;;
62149;SDS011;48134;53.586;10.610;2023-09-30T14:46:30;9.68;;;1.80;;
62149;SDS011;48134;53.586;10.610;2023-09-30T14:48:58;7.45;;;1.58;;
62149;SDS011;48134;53.586;10.610;2023-09-30T14:51:32;9.23;;;1.90;;
62149;SDS011;48134;53.586;10.610;2023-09-30T14:54:05;12.52;;;2.10;;
62149;SDS011;48134;53.586;10.610;2023-09-30T14:56:34;9.57;;;1.80;;
62149;SDS011;48134;53.586;10.610;2023-09-30T14:59:07;9.90;;;1.95;;
62149;SDS011;48134;53.586;10.610;2023-09-30T15:01:42;11.93;;;1.90;;
62149;SDS011;48134;53.586;10.610;2023-09-30T15:04:15;9.10;;;1.85;;